createdAt,value
2023-07-24T00:00:02.443Z,0
2023-07-24T00:05:02.401Z,0
2023-07-24T00:10:02.520Z,0
2023-07-24T00:15:02.561Z,0
2023-07-24T00:20:02.501Z,0
2023-07-24T00:25:02.412Z,0
2023-07-24T00:30:02.445Z,0
2023-07-24T00:35:02.535Z,0
2023-07-24T00:40:02.531Z,0
2023-07-24T00:45:05.132Z,0
2023-07-24T00:50:02.435Z,0
2023-07-24T00:55:02.626Z,0
2023-07-24T01:00:02.516Z,0
2023-07-24T01:05:02.556Z,0
2023-07-24T01:10:02.510Z,0
2023-07-24T01:15:02.687Z,0
2023-07-24T01:20:02.488Z,0
2023-07-24T01:25:02.495Z,0
2023-07-24T01:30:02.488Z,0
2023-07-24T01:35:02.661Z,0
2023-07-24T01:40:02.534Z,0
2023-07-24T01:45:02.506Z,0
2023-07-24T01:50:02.520Z,0
2023-07-24T01:55:02.530Z,0
2023-07-24T02:00:02.528Z,0
2023-07-24T02:05:02.561Z,0
2023-07-24T02:10:02.714Z,0
2023-07-24T02:15:02.547Z,0
2023-07-24T02:20:02.596Z,0
2023-07-24T02:25:02.549Z,0
2023-07-24T02:30:02.672Z,0
2023-07-24T02:35:02.503Z,0
2023-07-24T02:40:02.557Z,0
2023-07-24T02:45:02.522Z,0
2023-07-24T02:50:02.748Z,0
2023-07-24T02:55:02.583Z,0
2023-07-24T03:00:02.580Z,0
2023-07-24T03:05:02.575Z,0
2023-07-24T03:10:02.784Z,0
2023-07-24T03:15:02.599Z,0
2023-07-24T03:20:02.596Z,0
2023-07-24T03:25:02.607Z,0.21319576719576722
2023-07-24T03:30:02.718Z,0.33590476190476193
2023-07-24T03:35:02.593Z,0.3375661375661376
2023-07-24T03:40:02.622Z,0.4761693121693122
2023-07-24T03:45:02.647Z,0.4405079365079365
2023-07-24T03:50:02.606Z,0.5924444444444444
2023-07-24T03:55:02.700Z,0.649079365079365
2023-07-24T04:00:02.668Z,0.9176402116402116
2023-07-24T04:05:02.681Z,1.0074179894179893
2023-07-24T04:10:02.691Z,0.9153968253968253
2023-07-24T04:15:02.663Z,1.2566031746031747
2023-07-24T04:20:02.703Z,2.190878306878307
2023-07-24T04:25:02.699Z,2.9570158730158727
2023-07-24T04:30:02.651Z,3.075989417989418
2023-07-24T04:35:02.697Z,2.838656084656084
2023-07-24T04:40:02.698Z,2.9526560846560845
2023-07-24T04:45:02.704Z,3.636349206349206
2023-07-24T04:50:02.605Z,3.148878306878307
2023-07-24T04:55:02.666Z,2.192708994708995
2023-07-24T05:00:02.740Z,2.8533968253968256
2023-07-24T05:05:02.700Z,3.830666666666666
2023-07-24T05:10:02.740Z,4.218878306878307
2023-07-24T05:15:02.706Z,4.581142857142857
2023-07-24T05:20:02.701Z,3.8442962962962963
2023-07-24T05:25:02.922Z,4.183978835978836
2023-07-24T05:30:02.713Z,5.775164021164022
2023-07-24T05:35:02.693Z,6.696656084656086
2023-07-24T05:40:02.728Z,6.431439153439153
2023-07-24T05:45:02.821Z,6.282105820105819
2023-07-24T05:50:02.749Z,5.119121693121693
2023-07-24T05:55:02.720Z,6.139576719576721
2023-07-24T06:00:02.698Z,11.189873015873015
2023-07-24T06:05:02.794Z,11.760402116402116
2023-07-24T06:10:02.907Z,10.361703703703704
2023-07-24T06:15:02.842Z,7.772687830687832
2023-07-24T06:20:02.755Z,8.414074074074074
2023-07-24T06:25:02.745Z,8.745216931216932
2023-07-24T06:30:13.509Z,5.860328042328042
2023-07-24T06:35:02.754Z,3.900962962962963
2023-07-24T06:40:02.761Z,6.156253968253968
2023-07-24T06:45:02.828Z,6.533978835978836
2023-07-24T06:50:02.971Z,10.881216931216931
2023-07-24T06:55:02.783Z,11.684931216931219
2023-07-24T07:00:02.739Z,11.360285714285714
2023-07-24T07:05:02.796Z,13.969767195767197
2023-07-24T07:10:03.047Z,10.460560846560847
2023-07-24T07:15:02.820Z,14.634243386243384
2023-07-24T07:20:02.802Z,12.88047619047619
2023-07-24T07:25:02.775Z,13.72058201058201
2023-07-24T07:30:02.934Z,16.047333333333334
2023-07-24T07:35:02.842Z,19.712359788359787
2023-07-24T07:40:02.811Z,17.050772486772487
2023-07-24T07:45:02.805Z,12.238772486772488
2023-07-24T07:50:02.945Z,14.752169312169311
2023-07-24T07:55:02.846Z,12.944211640211641
2023-07-24T08:00:02.808Z,17.92536507936508
2023-07-24T08:05:10.300Z,22.570846560846565
2023-07-24T08:10:02.949Z,26.421820105820103
2023-07-24T08:15:02.897Z,8.11058201058201
2023-07-24T08:20:02.823Z,17.826190476190476
2023-07-24T08:25:02.874Z,8.37426455026455
2023-07-24T08:30:02.890Z,20.44215873015873
2023-07-24T08:35:03.112Z,27.225481481481484
2023-07-24T08:40:02.926Z,30.001417989417988
2023-07-24T08:45:02.934Z,16.070962962962966
2023-07-24T08:50:02.850Z,38.823470899470905
2023-07-24T08:55:03.087Z,45.720211640211645
2023-07-24T09:00:02.908Z,25.33474074074074
2023-07-24T09:05:02.948Z,23.231809523809524
2023-07-24T09:10:02.927Z,22.944804232804234
2023-07-24T09:15:02.953Z,35.70295238095238
2023-07-24T09:20:02.947Z,19.282740740740742
2023-07-24T09:25:02.894Z,27.669439153439157
2023-07-24T09:30:03.088Z,32.992984126984126
2023-07-24T09:35:04.817Z,27.383375661375663
2023-07-24T09:40:02.983Z,43.981534391534396
2023-07-24T09:45:02.950Z,34.1757671957672
2023-07-24T09:50:03.034Z,42.73622222222222
2023-07-24T09:55:02.915Z,22.138656084656088
2023-07-24T10:00:02.907Z,39.05223280423281
2023-07-24T10:05:02.948Z,36.354222222222226
2023-07-24T10:10:03.092Z,22.133354497354496
2023-07-24T10:15:02.990Z,9.385396825396827
2023-07-24T10:20:02.959Z,13.772994708994709
2023-07-24T10:25:03.035Z,13.208613756613758
2023-07-24T10:30:06.863Z,11.062084656084656
2023-07-24T10:35:02.958Z,13.02242328042328
2023-07-24T10:40:03.011Z,11.082867724867725
2023-07-24T10:45:02.986Z,12.574338624338624
2023-07-24T10:50:03.182Z,7.053238095238096
2023-07-24T10:55:02.961Z,4.901269841269841
2023-07-24T11:00:02.966Z,5.879661375661376
2023-07-24T11:05:03.092Z,7.622497354497355
2023-07-24T11:10:03.196Z,28.992751322751324
2023-07-24T11:15:02.995Z,25.890814814814817
2023-07-24T11:20:03.044Z,25.656539682539687
2023-07-24T11:25:03.037Z,44.60693121693122
2023-07-24T11:30:03.133Z,26.94885714285714
2023-07-24T11:35:03.040Z,30.104677248677252
2023-07-24T11:40:03.056Z,39.87839153439154
2023-07-24T11:45:03.079Z,29.422656084656083
2023-07-24T11:50:03.191Z,22.84470899470899
2023-07-24T11:55:03.014Z,15.190899470899472
2023-07-24T12:00:03.067Z,10.888740740740742
2023-07-24T12:05:03.132Z,12.435058201058203
2023-07-24T12:10:03.228Z,11.722328042328042
2023-07-24T12:15:03.124Z,42.93811640211641
2023-07-24T12:20:03.075Z,17.506613756613756
2023-07-24T12:25:03.054Z,13.166211640211642
2023-07-24T12:30:03.204Z,29.529894179894185
2023-07-24T12:35:03.153Z,34.105809523809526
2023-07-24T12:40:03.122Z,27.887841269841267
2023-07-24T12:45:03.078Z,32.81384126984127
2023-07-24T12:50:05.069Z,41.690211640211636
2023-07-24T12:55:03.268Z,45.31331216931217
2023-07-24T13:00:03.205Z,42.87913227513228
2023-07-24T13:05:03.097Z,51.71530158730159
2023-07-24T13:10:03.238Z,54.30288888888889
2023-07-24T13:15:00.697Z,56.417291005291005
2023-07-24T13:20:00.817Z,70.98466666666667
2023-07-24T13:25:00.616Z,57.578772486772486
2023-07-24T13:30:00.625Z,40.550761904761906
2023-07-24T13:35:00.677Z,75.9440529100529
2023-07-24T13:40:00.838Z,79.65542857142857
2023-07-24T13:45:00.574Z,84.1935873015873
2023-07-24T13:50:00.771Z,77.9988253968254
2023-07-24T13:55:00.632Z,61.03115343915344
2023-07-24T14:00:00.791Z,58.304116402116414
2023-07-24T14:05:00.703Z,54.04540740740741
2023-07-24T14:10:00.702Z,24.987460317460318
2023-07-24T14:15:00.817Z,51.75631746031746
2023-07-24T14:20:00.640Z,56.923756613756616
2023-07-24T14:25:00.769Z,41.805396825396826
2023-07-24T14:30:00.677Z,49.994179894179894
2023-07-24T14:35:00.812Z,23.39220105820106
2023-07-24T14:40:00.721Z,36.334306878306876
2023-07-24T14:45:00.673Z,51.27289947089947
2023-07-24T14:50:00.785Z,29.408783068783066
2023-07-24T14:55:00.723Z,23.05503703703704
2023-07-24T15:00:00.759Z,59.53453968253969
2023-07-24T15:05:00.708Z,21.839555555555556
2023-07-24T15:10:00.991Z,45.73463492063492
2023-07-24T15:15:00.874Z,53.98952380952381
2023-07-24T15:20:00.739Z,33.73929100529101
2023-07-24T15:25:00.733Z,48.70670899470899
2023-07-24T15:30:00.727Z,38.50609523809524
2023-07-24T15:35:00.755Z,54.03473015873016
2023-07-24T15:40:00.779Z,23.987492063492066
2023-07-24T15:45:00.861Z,37.48534391534392
2023-07-24T15:50:00.754Z,25.807153439153435
2023-07-24T15:55:00.836Z,20.36179894179894
2023-07-24T16:00:00.770Z,36.459248677248674
2023-07-24T16:05:00.957Z,35.30698412698413
2023-07-24T16:10:00.812Z,32.36515343915344
2023-07-24T16:15:00.773Z,26.13435978835979
2023-07-24T16:20:00.857Z,13.82341798941799
2023-07-24T16:25:00.854Z,19.78442328042328
2023-07-24T16:30:00.782Z,17.40511111111111
2023-07-24T16:35:00.792Z,23.809449735449732
2023-07-24T16:40:00.990Z,33.203629629629624
2023-07-24T16:45:00.848Z,31.100232804232807
2023-07-24T16:50:00.794Z,14.20010582010582
2023-07-24T16:55:00.817Z,20.810190476190478
2023-07-24T17:00:00.799Z,22.60115343915344
2023-07-24T17:05:00.771Z,20.589978835978837
2023-07-24T17:10:00.818Z,19.40210582010582
2023-07-24T17:15:01.001Z,17.624603174603177
2023-07-24T17:20:00.829Z,16.03737566137566
2023-07-24T17:25:00.860Z,9.749555555555556
2023-07-24T17:30:00.899Z,9.792603174603174
2023-07-24T17:35:01.006Z,8.92300529100529
2023-07-24T17:40:01.058Z,7.284867724867724
2023-07-24T17:45:00.826Z,6.56510052910053
2023-07-24T17:50:07.620Z,4.778338624338625
2023-07-24T17:55:00.903Z,3.832201058201058
2023-07-24T18:00:00.823Z,3.6261904761904766
2023-07-24T18:05:00.851Z,3.297206349206349
2023-07-24T18:10:01.144Z,2.6642962962962966
2023-07-24T18:15:00.880Z,2.0605185185185184
2023-07-24T18:20:00.939Z,1.6814920634920638
2023-07-24T18:25:00.890Z,1.4652698412698413
2023-07-24T18:30:00.912Z,1.272931216931217
2023-07-24T18:35:00.837Z,1.0258835978835978
2023-07-24T18:40:00.917Z,0.7688677248677248
2023-07-24T18:45:00.978Z,0.5112275132275133
2023-07-24T18:50:00.884Z,0.3915026455026455
2023-07-24T18:55:00.909Z,0.49322751322751324
2023-07-24T19:00:00.896Z,0.3671322751322752
2023-07-24T19:05:01.157Z,0.3593968253968254
2023-07-24T19:10:00.931Z,0.15339682539682542
2023-07-24T19:15:00.982Z,0
2023-07-24T19:20:00.992Z,0
2023-07-24T19:25:01.041Z,0
2023-07-24T19:30:00.924Z,0
2023-07-24T19:35:00.940Z,0
2023-07-24T19:40:01.037Z,0
2023-07-24T19:45:01.005Z,0
2023-07-24T19:50:00.947Z,0
2023-07-24T19:55:00.930Z,0
2023-07-24T20:00:00.996Z,0
2023-07-24T20:05:00.965Z,0
2023-07-24T20:10:01.159Z,0
2023-07-24T20:15:01.080Z,0
2023-07-24T20:20:01.054Z,0
2023-07-24T20:25:00.980Z,0
2023-07-24T20:30:01.001Z,0
2023-07-24T20:35:00.960Z,0
2023-07-24T20:40:01.174Z,0
2023-07-24T20:45:01.026Z,0
2023-07-24T20:50:00.989Z,0
2023-07-24T20:55:00.985Z,0
2023-07-24T21:00:01.200Z,0
2023-07-24T21:05:01.042Z,0
2023-07-24T21:10:01.040Z,0
2023-07-24T21:15:01.059Z,0
2023-07-24T21:20:01.187Z,0
2023-07-24T21:25:01.033Z,0
2023-07-24T21:30:01.097Z,0
2023-07-24T21:35:01.033Z,0
2023-07-24T21:40:01.037Z,0
2023-07-24T21:45:01.097Z,0
2023-07-24T21:50:01.035Z,0
2023-07-24T21:55:01.180Z,0
2023-07-24T22:00:01.099Z,0
2023-07-24T22:05:01.062Z,0
2023-07-24T22:10:01.207Z,0
2023-07-24T22:15:01.387Z,0
2023-07-24T22:20:01.083Z,0
2023-07-24T22:25:01.075Z,0
2023-07-24T22:30:01.156Z,0
2023-07-24T22:35:01.126Z,0
2023-07-24T22:40:01.112Z,0
2023-07-24T22:45:01.165Z,0
2023-07-24T22:50:01.252Z,0
2023-07-24T22:55:01.096Z,0
2023-07-24T23:00:01.119Z,0
2023-07-24T23:05:01.124Z,0
2023-07-24T23:10:01.285Z,0
2023-07-24T23:15:01.157Z,0
2023-07-24T23:20:01.159Z,0
2023-07-24T23:25:01.178Z,0
2023-07-24T23:30:01.252Z,0
2023-07-24T23:35:01.149Z,0
2023-07-24T23:40:01.152Z,0
2023-07-24T23:45:01.137Z,0
2023-07-24T23:50:01.343Z,0
2023-07-24T23:55:01.139Z,0
